createdAt,value
2023-09-11T00:00:16.560Z,93.64
2023-09-11T00:02:43.777Z,92.91
2023-09-11T00:05:10.878Z,92.30
2023-09-11T00:07:38.142Z,91.80
2023-09-11T00:10:05.553Z,91.62
2023-09-11T00:12:32.777Z,91.53
2023-09-11T00:14:59.812Z,91.98
2023-09-11T00:17:26.933Z,92.49
2023-09-11T00:19:55.061Z,92.21
2023-09-11T00:22:22.176Z,92.90
2023-09-11T00:24:49.265Z,94.01
2023-09-11T00:27:16.353Z,94.61
2023-09-11T00:29:43.403Z,93.59
2023-09-11T00:32:10.516Z,93.07
2023-09-11T00:34:37.453Z,93.69
2023-09-11T00:37:04.630Z,93.87
2023-09-11T00:39:31.650Z,93.62
2023-09-11T00:41:58.848Z,93.45
2023-09-11T00:44:26.281Z,92.39
2023-09-11T00:46:53.782Z,92.00
2023-09-11T00:49:20.918Z,92.15
2023-09-11T00:51:48.087Z,92.13
2023-09-11T00:54:15.585Z,92.24
2023-09-11T00:56:42.822Z,91.88
2023-09-11T00:59:10.473Z,92.34
2023-09-11T01:01:37.681Z,93.12
2023-09-11T01:04:05.002Z,93.38
2023-09-11T01:06:31.961Z,93.16
2023-09-11T01:08:59.116Z,93.21
2023-09-11T01:11:26.143Z,92.80
2023-09-11T01:13:53.338Z,93.38
2023-09-11T01:16:45.570Z,93.89
2023-09-11T01:19:57.786Z,93.85
2023-09-11T01:22:34.596Z,93.38
2023-09-11T01:25:09.006Z,93.25
2023-09-11T01:28:12.343Z,94.74
2023-09-11T01:30:39.826Z,94.22
2023-09-11T01:33:07.086Z,93.72
2023-09-11T01:35:34.363Z,94.14
2023-09-11T01:38:01.577Z,94.27
2023-09-11T01:40:28.672Z,94.45
2023-09-11T01:42:56.592Z,94.11
2023-09-11T01:45:23.986Z,94.30
2023-09-11T01:47:52.339Z,94.33
2023-09-11T01:50:20.254Z,94.12
2023-09-11T01:52:48.109Z,94.17
2023-09-11T01:55:15.187Z,95.42
2023-09-11T01:57:42.328Z,95.47
2023-09-11T02:00:10.115Z,95.06
2023-09-11T02:02:42.361Z,94.70
2023-09-11T02:05:10.927Z,95.35
2023-09-11T02:07:37.948Z,95.39
2023-09-11T02:10:05.264Z,95.35
2023-09-11T02:12:32.401Z,95.00
2023-09-11T02:14:59.912Z,96.12
2023-09-11T02:17:27.204Z,96.02
2023-09-11T02:19:54.578Z,95.18
2023-09-11T02:22:21.712Z,95.29
2023-09-11T02:24:48.717Z,96.54
2023-09-11T02:27:15.995Z,97.55
2023-09-11T02:29:43.130Z,98.26
2023-09-11T02:32:10.423Z,98.07
2023-09-11T02:34:37.578Z,97.06
2023-09-11T02:37:04.760Z,96.66
2023-09-11T02:39:31.905Z,97.54
2023-09-11T02:41:59.443Z,97.26
2023-09-11T02:44:26.675Z,97.40
2023-09-11T02:46:53.717Z,97.45
2023-09-11T02:49:20.802Z,98.73
2023-09-11T02:51:47.901Z,98.62
2023-09-11T02:54:15.183Z,98.62
2023-09-11T02:56:42.332Z,98.52
2023-09-11T02:59:09.472Z,97.81
2023-09-11T03:01:36.550Z,98.64
2023-09-11T03:04:03.831Z,98.04
2023-09-11T03:06:31.958Z,97.77
2023-09-11T03:08:59.176Z,98.17
2023-09-11T03:11:26.480Z,98.17
2023-09-11T03:13:53.684Z,99.79
2023-09-11T03:16:21.063Z,99.79
2023-09-11T03:18:55.097Z,99.78
2023-09-11T03:21:23.766Z,99.45
2023-09-11T03:23:51.450Z,100.00
2023-09-11T03:26:18.517Z,100.00
2023-09-11T03:28:50.878Z,100.00
2023-09-11T03:31:22.451Z,100.00
2023-09-11T03:33:49.823Z,100.00
2023-09-11T03:36:17.762Z,100.00
2023-09-11T03:38:45.318Z,100.00
2023-09-11T03:41:12.904Z,100.00
2023-09-11T03:43:40.038Z,100.00
2023-09-11T03:46:07.552Z,100.00
2023-09-11T03:48:35.757Z,100.00
2023-09-11T03:51:03.163Z,100.00
2023-09-11T03:53:30.315Z,100.00
2023-09-11T03:55:57.624Z,100.00
2023-09-11T03:58:24.766Z,100.00
2023-09-11T04:00:51.995Z,100.00
2023-09-11T04:03:19.236Z,99.54
2023-09-11T04:05:46.601Z,99.02
2023-09-11T04:08:13.658Z,99.91
2023-09-11T04:10:40.640Z,99.93
2023-09-11T04:13:07.725Z,99.71
2023-09-11T04:15:34.798Z,99.77
2023-09-11T04:18:01.946Z,99.79
2023-09-11T04:20:34.393Z,99.35
2023-09-11T04:23:03.876Z,100.00
2023-09-11T04:25:31.370Z,99.86
2023-09-11T04:27:59.110Z,100.00
2023-09-11T04:30:26.476Z,100.00
2023-09-11T04:32:53.943Z,100.00
2023-09-11T04:35:21.398Z,100.00
2023-09-11T04:37:48.983Z,100.00
2023-09-11T04:40:16.108Z,100.00
2023-09-11T04:42:45.453Z,100.00
2023-09-11T04:45:12.818Z,100.00
2023-09-11T04:47:40.242Z,100.00
2023-09-11T04:50:07.688Z,100.00
2023-09-11T04:52:35.129Z,100.00
2023-09-11T04:55:02.182Z,100.00
2023-09-11T04:57:29.381Z,100.00
2023-09-11T04:59:56.581Z,99.89
2023-09-11T05:02:23.964Z,99.05
2023-09-11T05:04:51.157Z,99.22
2023-09-11T05:07:18.361Z,99.25
2023-09-11T05:09:45.503Z,100.00
2023-09-11T05:12:12.679Z,100.00
2023-09-11T05:14:40.014Z,100.00
2023-09-11T05:17:07.211Z,100.00
2023-09-11T05:19:34.373Z,100.00
2023-09-11T05:22:01.399Z,100.00
2023-09-11T05:24:28.444Z,100.00
2023-09-11T05:26:55.557Z,100.00
2023-09-11T05:29:22.650Z,100.00
2023-09-11T05:31:50.889Z,100.00
2023-09-11T05:34:17.976Z,100.00
2023-09-11T05:36:45.102Z,100.00
2023-09-11T05:39:12.304Z,100.00
2023-09-11T05:41:39.449Z,100.00
2023-09-11T05:44:06.900Z,100.00
2023-09-11T05:46:34.085Z,100.00
2023-09-11T05:49:01.152Z,100.00
2023-09-11T05:51:28.303Z,100.00
2023-09-11T05:53:55.510Z,100.00
2023-09-11T05:56:22.628Z,100.00
2023-09-11T05:58:49.739Z,98.76
2023-09-11T06:01:16.803Z,99.78
2023-09-11T06:03:43.947Z,99.42
2023-09-11T06:06:11.052Z,99.82
2023-09-11T06:08:38.445Z,99.96
2023-09-11T06:11:05.876Z,99.28
2023-09-11T06:13:34.498Z,98.42
2023-09-11T06:16:01.737Z,98.56
2023-09-11T06:18:29.319Z,98.69
2023-09-11T06:20:56.549Z,98.05
2023-09-11T06:23:24.247Z,96.90
2023-09-11T06:25:51.304Z,95.79
2023-09-11T06:28:18.491Z,94.81
2023-09-11T06:30:45.763Z,93.91
2023-09-11T06:33:13.037Z,93.63
2023-09-11T06:35:40.277Z,92.09
2023-09-11T06:38:07.393Z,89.81
2023-09-11T06:40:34.430Z,89.82
2023-09-11T06:43:02.060Z,89.89
2023-09-11T06:45:29.217Z,89.50
2023-09-11T06:47:56.397Z,87.98
2023-09-11T06:50:23.561Z,87.38
2023-09-11T06:52:50.561Z,85.21
2023-09-11T06:55:17.644Z,82.20
2023-09-11T06:57:59.760Z,81.21
2023-09-11T07:00:27.020Z,80.49
2023-09-11T07:02:55.393Z,80.65
2023-09-11T07:05:22.792Z,80.49
2023-09-11T07:07:51.507Z,80.12
2023-09-11T07:10:34.097Z,79.01
2023-09-11T07:13:01.899Z,78.35
2023-09-11T07:15:28.903Z,78.15
2023-09-11T07:17:56.165Z,78.27
2023-09-11T07:20:23.214Z,78.02
2023-09-11T07:22:50.395Z,76.00
2023-09-11T07:25:18.480Z,76.10
2023-09-11T07:27:45.984Z,75.40
2023-09-11T07:30:13.221Z,75.00
2023-09-11T07:32:41.200Z,75.05
2023-09-11T07:35:08.803Z,75.03
2023-09-11T07:37:35.895Z,74.66
2023-09-11T07:40:03.526Z,74.17
2023-09-11T07:42:31.644Z,73.96
2023-09-11T07:44:58.963Z,73.88
2023-09-11T07:47:26.223Z,74.32
2023-09-11T07:49:54.464Z,75.27
2023-09-11T07:52:21.610Z,74.20
2023-09-11T07:54:48.705Z,74.48
2023-09-11T07:57:15.871Z,73.56
2023-09-11T07:59:42.954Z,71.68
2023-09-11T08:02:10.125Z,71.80
2023-09-11T08:04:38.223Z,73.75
2023-09-11T08:07:06.212Z,74.07
2023-09-11T08:09:33.394Z,72.65
2023-09-11T08:12:01.899Z,73.44
2023-09-11T08:14:29.251Z,73.84
2023-09-11T08:16:56.469Z,74.23
2023-09-11T08:19:23.611Z,73.78
2023-09-11T08:21:52.100Z,72.72
2023-09-11T08:24:19.230Z,72.29
2023-09-11T08:26:46.621Z,73.40
2023-09-11T08:29:16.262Z,74.11
2023-09-11T08:31:43.444Z,73.82
2023-09-11T08:34:10.707Z,73.50
2023-09-11T08:36:38.223Z,73.30
2023-09-11T08:39:05.312Z,74.12
2023-09-11T08:41:32.577Z,73.13
2023-09-11T08:43:59.611Z,73.74
2023-09-11T08:46:27.157Z,73.69
2023-09-11T08:48:58.468Z,72.69
2023-09-11T08:51:35.202Z,71.99
2023-09-11T08:54:03.865Z,72.01
2023-09-11T08:56:31.409Z,73.77
2023-09-11T08:58:58.951Z,73.21
2023-09-11T09:01:26.041Z,72.93
2023-09-11T09:03:53.433Z,72.86
2023-09-11T09:06:20.630Z,71.40
2023-09-11T09:08:47.780Z,71.13
2023-09-11T09:11:14.936Z,72.94
2023-09-11T09:13:42.354Z,73.28
2023-09-11T09:16:09.863Z,72.27
2023-09-11T09:18:36.998Z,70.71
2023-09-11T09:21:06.383Z,71.27
2023-09-11T09:23:37.058Z,69.62
2023-09-11T09:26:08.008Z,69.14
2023-09-11T09:28:36.933Z,68.97
2023-09-11T09:31:04.961Z,70.85
2023-09-11T09:33:32.472Z,72.20
2023-09-11T09:36:00.134Z,71.53
2023-09-11T09:38:27.780Z,72.65
2023-09-11T09:40:56.314Z,72.09
2023-09-11T09:43:23.603Z,72.53
2023-09-11T09:45:51.030Z,72.85
2023-09-11T09:48:20.245Z,73.45
2023-09-11T09:50:58.550Z,73.46
2023-09-11T09:53:37.103Z,73.57
2023-09-11T09:56:05.904Z,72.43
2023-09-11T09:58:38.039Z,72.74
2023-09-11T10:01:06.086Z,72.92
2023-09-11T10:03:41.196Z,72.58
2023-09-11T10:06:09.828Z,72.27
2023-09-11T10:08:37.024Z,71.76
2023-09-11T10:11:04.248Z,71.05
2023-09-11T10:13:35.760Z,71.98
2023-09-11T10:16:03.458Z,72.98
2023-09-11T10:18:34.513Z,73.54
2023-09-11T10:21:02.211Z,72.73
2023-09-11T10:23:29.436Z,73.75
2023-09-11T10:26:00.113Z,72.35
2023-09-11T10:28:33.705Z,71.78
2023-09-11T10:31:13.718Z,72.74
2023-09-11T10:33:41.498Z,72.38
2023-09-11T10:36:14.014Z,72.60
2023-09-11T10:38:41.647Z,71.55
2023-09-11T10:41:09.566Z,72.33
2023-09-11T10:43:36.678Z,70.52
2023-09-11T10:46:32.864Z,71.92
2023-09-11T10:49:01.091Z,72.16
2023-09-11T10:51:31.087Z,72.13
2023-09-11T10:53:58.186Z,71.21
2023-09-11T10:56:25.402Z,72.38
2023-09-11T10:58:53.807Z,71.61
2023-09-11T11:01:23.504Z,72.17
2023-09-11T11:03:51.297Z,72.36
2023-09-11T11:06:18.907Z,71.65
2023-09-11T11:08:47.650Z,70.89
2023-09-11T11:11:23.755Z,71.84
2023-09-11T11:14:20.256Z,71.76
2023-09-11T11:17:01.805Z,72.73
2023-09-11T11:19:30.366Z,73.20
2023-09-11T11:21:57.516Z,72.18
2023-09-11T11:24:25.660Z,73.11
2023-09-11T11:26:57.525Z,73.44
2023-09-11T11:29:25.968Z,71.59
2023-09-11T11:31:57.111Z,71.51
2023-09-11T11:34:26.124Z,72.35
2023-09-11T11:36:55.482Z,72.15
2023-09-11T11:39:24.262Z,70.84
2023-09-11T11:41:52.229Z,70.59
2023-09-11T11:44:20.001Z,69.71
2023-09-11T11:46:48.025Z,69.27
2023-09-11T11:49:19.492Z,69.12
2023-09-11T11:51:46.767Z,68.76
2023-09-11T11:54:28.447Z,68.77
2023-09-11T11:56:56.498Z,69.62
2023-09-11T11:59:24.570Z,69.25
2023-09-11T12:01:51.694Z,69.07
2023-09-11T12:04:32.239Z,69.15
2023-09-11T12:07:05.949Z,70.64
2023-09-11T12:09:33.292Z,69.84
2023-09-11T12:12:00.484Z,68.47
2023-09-11T12:14:27.646Z,68.91
2023-09-11T12:16:54.772Z,68.81
2023-09-11T12:19:24.249Z,68.41
2023-09-11T12:21:55.792Z,67.41
2023-09-11T12:24:22.853Z,67.65
2023-09-11T12:26:50.078Z,68.97
2023-09-11T12:29:17.173Z,69.02
2023-09-11T12:31:44.237Z,68.99
2023-09-11T12:34:11.442Z,70.48
2023-09-11T12:36:38.563Z,68.95
2023-09-11T12:39:08.801Z,68.75
2023-09-11T12:41:35.874Z,68.98
2023-09-11T12:44:03.748Z,69.70
2023-09-11T12:46:30.877Z,68.66
2023-09-11T12:48:57.999Z,68.38
2023-09-11T12:51:25.067Z,68.73
2023-09-11T12:53:52.122Z,68.86
2023-09-11T12:56:22.247Z,65.71
2023-09-11T12:58:49.418Z,64.80
2023-09-11T13:01:16.439Z,66.18
2023-09-11T13:03:47.581Z,66.82
2023-09-11T13:06:14.953Z,67.79
2023-09-11T13:08:42.242Z,67.99
2023-09-11T13:11:09.467Z,67.39
2023-09-11T13:13:36.716Z,67.51
2023-09-11T13:16:04.588Z,66.67
2023-09-11T13:18:31.986Z,66.72
2023-09-11T13:20:59.281Z,64.87
2023-09-11T13:23:26.952Z,64.03
2023-09-11T13:25:54.367Z,65.50
2023-09-11T13:28:21.474Z,65.01
2023-09-11T13:30:48.831Z,63.10
2023-09-11T13:33:16.140Z,63.34
2023-09-11T13:35:43.523Z,64.30
2023-09-11T13:38:10.552Z,64.67
2023-09-11T13:40:37.654Z,64.00
2023-09-11T13:43:04.626Z,63.71
2023-09-11T13:45:31.859Z,64.53
2023-09-11T13:47:59.710Z,64.23
2023-09-11T13:50:26.860Z,65.24
2023-09-11T13:52:54.085Z,65.21
2023-09-11T13:55:21.159Z,65.16
2023-09-11T13:57:48.293Z,64.41
2023-09-11T14:00:15.699Z,65.45
2023-09-11T14:02:43.082Z,66.36
2023-09-11T14:05:10.522Z,66.02
2023-09-11T14:07:37.700Z,65.00
2023-09-11T14:10:05.215Z,65.03
2023-09-11T14:12:32.305Z,65.58
2023-09-11T14:14:59.493Z,64.76
2023-09-11T14:17:26.593Z,64.57
2023-09-11T14:19:53.708Z,65.87
2023-09-11T14:22:20.764Z,66.32
2023-09-11T14:24:47.763Z,66.35
2023-09-11T14:27:15.235Z,67.36
2023-09-11T14:29:42.324Z,66.66
2023-09-11T14:32:09.633Z,67.55
2023-09-11T14:34:36.726Z,67.66
2023-09-11T14:37:20.689Z,66.96
2023-09-11T14:39:49.708Z,68.46
2023-09-11T14:42:16.900Z,67.98
2023-09-11T14:44:44.252Z,69.41
2023-09-11T14:47:11.312Z,70.05
2023-09-11T14:49:38.326Z,69.64
2023-09-11T14:52:05.751Z,69.78
2023-09-11T14:54:43.246Z,69.87
2023-09-11T14:57:19.399Z,71.69
2023-09-11T14:59:46.523Z,73.32
2023-09-11T15:02:13.715Z,72.92
2023-09-11T15:04:49.339Z,73.58
2023-09-11T15:07:18.101Z,73.54
2023-09-11T15:09:48.964Z,74.19
2023-09-11T15:12:16.176Z,73.74
2023-09-11T15:14:43.985Z,73.72
2023-09-11T15:17:11.305Z,74.29
2023-09-11T15:19:39.304Z,73.91
2023-09-11T15:22:06.720Z,73.94
2023-09-11T15:24:34.294Z,74.25
2023-09-11T15:27:01.391Z,74.76
2023-09-11T15:29:28.447Z,75.66
2023-09-11T15:32:09.421Z,75.78
2023-09-11T15:34:40.252Z,76.15
2023-09-11T15:37:10.747Z,76.96
2023-09-11T15:39:37.827Z,76.71
2023-09-11T15:42:05.462Z,78.55
2023-09-11T15:44:32.529Z,78.22
2023-09-11T15:47:00.368Z,77.20
2023-09-11T15:49:27.494Z,77.13
2023-09-11T15:51:54.551Z,76.90
2023-09-11T15:54:23.719Z,76.79
2023-09-11T15:56:52.513Z,78.67
2023-09-11T15:59:19.566Z,77.37
2023-09-11T16:01:46.655Z,77.91
2023-09-11T16:04:14.004Z,78.35
2023-09-11T16:06:41.269Z,78.23
2023-09-11T16:09:08.465Z,77.44
2023-09-11T16:11:36.061Z,77.21
2023-09-11T16:14:03.215Z,77.08
2023-09-11T16:16:30.545Z,79.37
2023-09-11T16:18:57.950Z,80.76
2023-09-11T16:21:38.730Z,79.49
2023-09-11T16:24:07.486Z,78.92
2023-09-11T16:26:34.762Z,80.29
2023-09-11T16:29:02.408Z,81.01
2023-09-11T16:31:31.341Z,79.78
2023-09-11T16:34:05.730Z,78.81
2023-09-11T16:36:33.751Z,79.59
2023-09-11T16:39:01.086Z,79.66
2023-09-11T16:41:28.824Z,79.36
2023-09-11T16:43:57.011Z,79.08
2023-09-11T16:46:25.153Z,80.24
2023-09-11T16:48:52.649Z,80.39
2023-09-11T16:51:20.425Z,79.75
2023-09-11T16:53:47.973Z,79.18
2023-09-11T16:56:15.688Z,79.84
2023-09-11T16:58:43.534Z,79.60
2023-09-11T17:01:11.621Z,80.79
2023-09-11T17:03:39.350Z,82.71
2023-09-11T17:06:07.011Z,81.52
2023-09-11T17:08:34.242Z,81.42
2023-09-11T17:11:01.511Z,83.34
2023-09-11T17:13:28.892Z,83.96
2023-09-11T17:15:57.415Z,82.17
2023-09-11T17:18:24.774Z,82.28
2023-09-11T17:20:52.959Z,83.08
2023-09-11T17:23:20.256Z,81.93
2023-09-11T17:25:47.530Z,82.19
2023-09-11T17:28:14.764Z,81.34
2023-09-11T17:30:41.980Z,81.13
2023-09-11T17:33:10.986Z,82.51
2023-09-11T17:35:39.143Z,83.81
2023-09-11T17:38:06.622Z,84.32
2023-09-11T17:40:33.821Z,84.14
2023-09-11T17:43:00.997Z,84.63
2023-09-11T17:45:28.213Z,85.63
2023-09-11T17:47:56.509Z,85.99
2023-09-11T17:50:23.754Z,86.14
2023-09-11T17:52:50.960Z,86.56
2023-09-11T17:55:18.046Z,86.96
2023-09-11T17:57:46.836Z,86.68
2023-09-11T18:00:14.517Z,86.44
2023-09-11T18:02:41.966Z,87.26
2023-09-11T18:05:09.505Z,86.66
2023-09-11T18:07:36.778Z,86.35
2023-09-11T18:10:04.756Z,86.76
2023-09-11T18:12:32.335Z,86.96
2023-09-11T18:14:59.436Z,88.19
2023-09-11T18:17:27.426Z,88.43
2023-09-11T18:19:56.028Z,87.67
2023-09-11T18:22:23.412Z,88.62
2023-09-11T18:24:50.525Z,87.99
2023-09-11T18:27:17.676Z,87.88
2023-09-11T18:29:44.873Z,89.04
2023-09-11T18:32:12.103Z,88.70
2023-09-11T18:34:39.327Z,89.57
2023-09-11T18:37:06.596Z,90.18
2023-09-11T18:39:33.705Z,90.37
2023-09-11T18:42:01.062Z,90.33
2023-09-11T18:44:28.198Z,91.54
2023-09-11T18:46:55.352Z,90.99
2023-09-11T18:49:22.642Z,89.93
2023-09-11T18:51:52.837Z,88.95
2023-09-11T18:54:22.174Z,89.07
2023-09-11T18:56:49.984Z,88.73
2023-09-11T18:59:17.530Z,86.54
2023-09-11T19:01:46.643Z,86.37
2023-09-11T19:04:13.995Z,86.13
2023-09-11T19:06:44.265Z,87.15
2023-09-11T19:09:12.172Z,87.44
2023-09-11T19:11:39.428Z,88.13
2023-09-11T19:14:06.688Z,89.05
2023-09-11T19:16:33.883Z,89.44
2023-09-11T19:19:01.172Z,87.42
2023-09-11T19:21:29.122Z,88.04
2023-09-11T19:23:56.362Z,87.17
2023-09-11T19:26:24.791Z,86.35
2023-09-11T19:28:52.440Z,84.71
2023-09-11T19:31:20.960Z,85.84
2023-09-11T19:33:48.810Z,85.52
2023-09-11T19:36:16.692Z,84.20
2023-09-11T19:38:45.473Z,84.91
2023-09-11T19:41:13.367Z,84.76
2023-09-11T19:43:40.833Z,83.63
2023-09-11T19:46:08.364Z,83.12
2023-09-11T19:48:37.267Z,83.37
2023-09-11T19:51:05.170Z,82.71
2023-09-11T19:53:32.428Z,82.53
2023-09-11T19:56:00.527Z,84.41
2023-09-11T19:58:29.351Z,84.68
2023-09-11T20:00:56.948Z,84.16
2023-09-11T20:03:25.691Z,83.35
2023-09-11T20:05:55.952Z,83.35
2023-09-11T20:08:23.086Z,83.19
2023-09-11T20:10:50.186Z,83.97
2023-09-11T20:13:17.191Z,83.31
2023-09-11T20:15:44.323Z,83.31
2023-09-11T20:18:11.540Z,82.55
2023-09-11T20:20:39.390Z,82.75
2023-09-11T20:23:06.574Z,82.96
2023-09-11T20:25:33.714Z,83.58
2023-09-11T20:28:00.699Z,83.99
2023-09-11T20:30:28.055Z,86.41
2023-09-11T20:32:55.377Z,86.13
2023-09-11T20:35:22.720Z,86.58
2023-09-11T20:37:49.908Z,86.21
2023-09-11T20:40:16.837Z,85.43
2023-09-11T20:42:43.955Z,86.06
2023-09-11T20:45:11.978Z,87.13
2023-09-11T20:47:39.279Z,86.38
2023-09-11T20:50:08.472Z,86.29
2023-09-11T20:52:36.651Z,85.66
2023-09-11T20:55:05.780Z,86.41
2023-09-11T20:57:34.091Z,85.28
2023-09-11T21:00:02.328Z,86.25
2023-09-11T21:02:35.559Z,84.75
2023-09-11T21:05:08.212Z,84.30
2023-09-11T21:07:36.704Z,84.21
2023-09-11T21:10:04.258Z,85.84
2023-09-11T21:12:32.224Z,85.75
2023-09-11T21:14:59.418Z,86.74
2023-09-11T21:17:26.557Z,85.77
2023-09-11T21:19:53.990Z,85.22
2023-09-11T21:22:21.039Z,85.79
2023-09-11T21:24:48.099Z,84.68
2023-09-11T21:27:15.187Z,83.24
2023-09-11T21:29:42.287Z,85.39
2023-09-11T21:32:09.316Z,86.37
2023-09-11T21:34:36.337Z,86.58
2023-09-11T21:37:03.628Z,85.64
2023-09-11T21:39:30.760Z,84.08
2023-09-11T21:41:59.290Z,84.41
2023-09-11T21:44:28.398Z,85.04
2023-09-11T21:46:55.586Z,86.04
2023-09-11T21:49:22.670Z,85.63
2023-09-11T21:51:49.718Z,85.83
2023-09-11T21:54:16.883Z,84.58
2023-09-11T21:56:44.296Z,83.99
2023-09-11T21:59:11.522Z,83.51
2023-09-11T22:01:39.248Z,83.51
2023-09-11T22:04:07.194Z,83.94
2023-09-11T22:06:34.397Z,83.50
2023-09-11T22:09:01.587Z,82.93
2023-09-11T22:11:28.788Z,83.15
2023-09-11T22:13:55.853Z,84.26
2023-09-11T22:16:22.902Z,86.46
2023-09-11T22:18:50.089Z,86.01
2023-09-11T22:21:18.799Z,85.48
2023-09-11T22:23:45.908Z,86.03
2023-09-11T22:26:12.980Z,86.57
2023-09-11T22:28:39.993Z,85.06
2023-09-11T22:31:08.455Z,84.22
2023-09-11T22:33:35.662Z,83.86
2023-09-11T22:36:02.791Z,84.62
2023-09-11T22:38:29.928Z,84.06
2023-09-11T22:40:57.049Z,83.82
2023-09-11T22:43:24.169Z,84.42
2023-09-11T22:45:51.232Z,84.18
2023-09-11T22:48:18.430Z,84.80
2023-09-11T22:50:45.636Z,84.89
2023-09-11T22:53:15.586Z,85.54
2023-09-11T22:55:44.618Z,85.22
2023-09-11T22:58:11.672Z,85.00
2023-09-11T23:00:41.550Z,84.94
2023-09-11T23:03:09.826Z,85.41
2023-09-11T23:05:37.487Z,85.09
2023-09-11T23:08:05.062Z,84.96
2023-09-11T23:10:32.744Z,85.05
2023-09-11T23:12:59.962Z,85.35
2023-09-11T23:15:27.160Z,85.34
2023-09-11T23:17:54.676Z,85.62
2023-09-11T23:20:22.073Z,87.43
2023-09-11T23:22:49.121Z,86.06
2023-09-11T23:25:16.261Z,84.97
2023-09-11T23:27:43.378Z,85.43
2023-09-11T23:30:10.916Z,85.47
2023-09-11T23:32:38.421Z,85.76
2023-09-11T23:35:06.371Z,86.59
2023-09-11T23:37:33.722Z,85.35
2023-09-11T23:40:00.892Z,84.20
2023-09-11T23:42:28.156Z,83.34
2023-09-11T23:44:55.293Z,85.05
2023-09-11T23:47:22.379Z,85.73
2023-09-11T23:49:49.598Z,85.16
2023-09-11T23:52:26.456Z,84.28
2023-09-11T23:54:55.326Z,85.63
2023-09-11T23:57:22.519Z,85.58
2023-09-11T23:59:49.663Z,84.71
